AirNav   Bose Proflight Series 2 Wireless viation Headset
 
 272 users online  

16VA Echols Field Airport
Mount Solon, Virginia, USA


FAA INFORMATION EFFECTIVE 10 OCTOBER 2019

Location

FAA Identifier: 16VA
Lat/Long: 38-20-04.0000N 079-09-38.0000W
38-20.066667N 079-09.633333W
38.3344444,-79.1605556
(estimated)
Elevation: 1782 ft. / 543 m (estimated)
From city: 4 miles W of MOUNT SOLON, VA
Time zone: UTC -4 (UTC -5 during Standard Time)
Zip code: 22843

Airport Operations

Airport use: Private use. Permission required prior to landing
Activation date: 08/2019
Control tower: no
ARTCC: WASHINGTON CENTER
FSS: LEESBURG FLIGHT SERVICE STATION
Attendance: 
Wind indicator: yes
Segmented circle: no

Airport Communications

WX AWOS-3 at VBW (10 nm E): 119.55 (540-828-2076)
WX AWOS-3 at SHD (13 nm E): 124.925 (540-234-0110)
WX AWOS-3PT at W13 (19 nm SE): 118.625 (540-941-7570)

Nearby radio navigation aids

VOR radial/distance  VOR name  Freq  Var
MOLr359/26.2MONTEBELLO VOR/DME115.3005W

 
NDB name  Hdg/Dist  Freq  Var  ID
STAUT319/12.537509WSH ... ....
CAVERNS245/39.024509WLUA .-.. ..- .-

Airport Services

Runway Information

Runway 5/23

Dimensions: 1650 x 50 ft. / 503 x 15 m
Surface: turf/dirt, in fair condition
RUNWAY 5  RUNWAY 23
Traffic pattern: leftleft

Airport Ownership and Management from official FAA records

Ownership: Privately-owned
Owner: YELLOW JACKET HOLLOW
505 PATLEIGH RD
CATONSVILLE, MD 21228
Phone 443-629-2630
Manager: JEREMY WIMPEY
1165 LOTTS RD
STEELES TAVERN, VA 24476
Phone 443 629 2630

Airport Operational Statistics

Aircraft based on the field: 1
Single engine airplanes: 1
    

Instrument Procedures

There are no published instrument procedures at 16VA.

Some nearby airports with instrument procedures:

KVBW - Bridgewater Air Park (10 nm E)
KSHD - Shenandoah Valley Regional Airport (13 nm E)
W13 - Eagle's Nest Airport (19 nm SE)
8W2 - New Market Airport (29 nm NE)
KCHO - Charlottesville-Albemarle Airport (35 nm E)
 
Loc | Ops | Rwys | IFR | FBO | Links
Com | Nav | Svcs | Stats | Notes
Aerial photo
No photo
 
Airport distance calculator
Flying to Echols Field Airport? Find the distance to fly.

From to 16VA

Sunrise and sunset
Times for 19-Oct-2019
 Local
(UTC-4)
 Zulu
(UTC)
Morning civil twilight07:0411:04
Sunrise07:3011:30
Sunset18:3322:33
Evening civil twilight19:0023:00

Current date and time
Zulu (UTC)  19-Oct-2019 08:30:20
Local (UTC-4)  19-Oct-2019 04:30:20
 
METAR
KVBW 
10nm E 
190815Z AUTO 00000KT 10SM CLR 00/00 A3008 RMK AO1 T00030003
KSHD 
13nm E 
190815Z AUTO 00000KT 10SM CLR M01/M02 A3010 RMK AO2 T10121016
KW13 
19nm SE 
190815Z AUTO 00000KT 10SM CLR 01/01 A3008 RMK AO1 T00090007
TAF
KCHO 
36nm E 
190539Z 1906/2006 00000KT P6SM FEW250 FM191600 16004KT P6SM FEW250 FM191800 18006KT P6SM SCT250 FM192100 18006KT P6SM BKN200 FM200300 VRB03KT P6SM BKN120
NOTAMs
Click for the latest NOTAMs
NOTAMs are issued by the DoD/FAA and will open in a separate window not controlled by AirNav.

 

 
 

Would you like to see your business listed on this page?

 If your business provides an interesting product or service to pilots, flight crews, aircraft, or users of the Echols Field Airport, you should consider listing it here.  To start the listing process, click on the button below
 
Add a business
 

Other Pages about Echols Field Airport

Update a link
 
Copyright © AirNav, LLC. All rights reserved. Privacy Policy  Contact